sensor_id;sensor_type;location;lat;lon;timestamp;pressure;altitude;pressure_sealevel;temperature;humidity
50977;BME280;36992;48.200;12.418;2023-08-21T00:00:47;97219.38;;;27.90;44.61
50977;BME280;36992;48.200;12.418;2023-08-21T00:03:14;97215.78;;;27.90;44.46
50977;BME280;36992;48.200;12.418;2023-08-21T00:05:41;97209.09;;;27.87;44.60
50977;BME280;36992;48.200;12.418;2023-08-21T00:08:07;97212.25;;;27.85;44.84
50977;BME280;36992;48.200;12.418;2023-08-21T00:10:37;97206.72;;;27.85;44.76
50977;BME280;36992;48.200;12.418;2023-08-21T00:13:04;97206.72;;;27.78;45.26
50977;BME280;36992;48.200;12.418;2023-08-21T00:15:31;97213.03;;;27.75;44.68
50977;BME280;36992;48.200;12.418;2023-08-21T00:17:57;97212.22;;;27.71;45.21
50977;BME280;36992;48.200;12.418;2023-08-21T00:20:25;97217.00;;;27.67;45.33
50977;BME280;36992;48.200;12.418;2023-08-21T00:22:52;97218.97;;;27.63;44.98
50977;BME280;36992;48.200;12.418;2023-08-21T00:25:18;97214.63;;;27.58;45.24
50977;BME280;36992;48.200;12.418;2023-08-21T00:27:46;97217.34;;;27.54;45.34
50977;BME280;36992;48.200;12.418;2023-08-21T00:30:13;97222.47;;;27.48;45.12
50977;BME280;36992;48.200;12.418;2023-08-21T00:32:40;97214.16;;;27.45;45.68
50977;BME280;36992;48.200;12.418;2023-08-21T00:35:06;97224.03;;;27.42;45.22
50977;BME280;36992;48.200;12.418;2023-08-21T00:37:33;97211.00;;;27.39;45.50
50977;BME280;36992;48.200;12.418;2023-08-21T00:39:59;97213.38;;;27.37;45.00
50977;BME280;36992;48.200;12.418;2023-08-21T00:42:27;97210.56;;;27.33;45.74
50977;BME280;36992;48.200;12.418;2023-08-21T00:44:55;97207.41;;;27.31;45.08
50977;BME280;36992;48.200;12.418;2023-08-21T00:47:21;97206.63;;;27.27;45.62
50977;BME280;36992;48.200;12.418;2023-08-21T00:49:48;97203.47;;;27.25;45.59
50977;BME280;36992;48.200;12.418;2023-08-21T00:52:15;97209.00;;;27.25;45.77
50977;BME280;36992;48.200;12.418;2023-08-21T00:54:42;97209.78;;;27.22;45.21
50977;BME280;36992;48.200;12.418;2023-08-21T00:57:10;97213.72;;;27.21;45.61
50977;BME280;36992;48.200;12.418;2023-08-21T00:59:37;97208.97;;;27.18;45.38
50977;BME280;36992;48.200;12.418;2023-08-21T01:02:05;97209.78;;;27.18;45.18
50977;BME280;36992;48.200;12.418;2023-08-21T01:04:31;97216.47;;;27.14;45.48
50977;BME280;36992;48.200;12.418;2023-08-21T01:06:58;97216.06;;;27.12;45.57
50977;BME280;36992;48.200;12.418;2023-08-21T01:09:28;97209.34;;;27.13;45.05
50977;BME280;36992;48.200;12.418;2023-08-21T01:12:06;97208.56;;;27.12;44.63
50977;BME280;36992;48.200;12.418;2023-08-21T01:14:40;97211.31;;;27.09;45.04
50977;BME280;36992;48.200;12.418;2023-08-21T01:17:11;97210.13;;;27.06;45.36
50977;BME280;36992;48.200;12.418;2023-08-21T01:19:41;97218.81;;;27.01;45.20
50977;BME280;36992;48.200;12.418;2023-08-21T01:22:08;97207.31;;;26.95;45.46
50977;BME280;36992;48.200;12.418;2023-08-21T01:24:36;97215.59;;;26.95;45.23
50977;BME280;36992;48.200;12.418;2023-08-21T01:27:03;97209.28;;;26.91;45.59
50977;BME280;36992;48.200;12.418;2023-08-21T01:29:30;97215.94;;;26.90;45.72
50977;BME280;36992;48.200;12.418;2023-08-21T01:32:02;97224.69;;;26.92;45.22
50977;BME280;36992;48.200;12.418;2023-08-21T01:34:33;97216.34;;;26.85;45.62
50977;BME280;36992;48.200;12.418;2023-08-21T01:37:00;97219.50;;;26.83;45.49
50977;BME280;36992;48.200;12.418;2023-08-21T01:39:28;97213.56;;;26.81;45.01
50977;BME280;36992;48.200;12.418;2023-08-21T01:41:56;97217.09;;;26.82;45.12
50977;BME280;36992;48.200;12.418;2023-08-21T01:44:23;97216.72;;;26.79;45.95
50977;BME280;36992;48.200;12.418;2023-08-21T01:46:51;97217.47;;;26.76;45.80
50977;BME280;36992;48.200;12.418;2023-08-21T01:49:18;97214.31;;;26.74;45.62
50977;BME280;36992;48.200;12.418;2023-08-21T01:51:45;97211.94;;;26.73;45.75
50977;BME280;36992;48.200;12.418;2023-08-21T01:54:11;97210.75;;;26.70;45.57
50977;BME280;36992;48.200;12.418;2023-08-21T01:56:38;97209.16;;;26.69;46.17
50977;BME280;36992;48.200;12.418;2023-08-21T01:59:06;97205.63;;;26.69;45.52
50977;BME280;36992;48.200;12.418;2023-08-21T02:01:32;97207.19;;;26.66;45.78
50977;BME280;36992;48.200;12.418;2023-08-21T02:03:59;97205.56;;;26.65;45.99
50977;BME280;36992;48.200;12.418;2023-08-21T02:06:26;97203.22;;;26.63;46.10
50977;BME280;36992;48.200;12.418;2023-08-21T02:08:52;97201.22;;;26.60;46.22
50977;BME280;36992;48.200;12.418;2023-08-21T02:11:19;97199.66;;;26.59;45.78
50977;BME280;36992;48.200;12.418;2023-08-21T02:13:45;97197.66;;;26.56;46.16
50977;BME280;36992;48.200;12.418;2023-08-21T02:16:13;97202.41;;;26.56;45.88
50977;BME280;36992;48.200;12.418;2023-08-21T02:18:40;97201.56;;;26.51;45.98
50977;BME280;36992;48.200;12.418;2023-08-21T02:21:06;97198.41;;;26.49;45.88
50977;BME280;36992;48.200;12.418;2023-08-21T02:23:33;97201.97;;;26.46;45.79
50977;BME280;36992;48.200;12.418;2023-08-21T02:25:59;97199.16;;;26.43;46.58
50977;BME280;36992;48.200;12.418;2023-08-21T02:28:26;97196.00;;;26.40;46.24
50977;BME280;36992;48.200;12.418;2023-08-21T02:30:52;97193.22;;;26.37;46.38
50977;BME280;36992;48.200;12.418;2023-08-21T02:33:20;97189.25;;;26.34;46.06
50977;BME280;36992;48.200;12.418;2023-08-21T02:35:47;97193.56;;;26.32;46.56
50977;BME280;36992;48.200;12.418;2023-08-21T02:38:13;97195.94;;;26.30;46.31
50977;BME280;36992;48.200;12.418;2023-08-21T02:40:40;97202.22;;;26.26;46.54
50977;BME280;36992;48.200;12.418;2023-08-21T02:43:06;97204.59;;;26.24;46.59
50977;BME280;36992;48.200;12.418;2023-08-21T02:45:33;97205.34;;;26.21;46.67
50977;BME280;36992;48.200;12.418;2023-08-21T02:48:00;97202.16;;;26.19;46.92
50977;BME280;36992;48.200;12.418;2023-08-21T02:50:28;97202.16;;;26.19;46.45
50977;BME280;36992;48.200;12.418;2023-08-21T02:52:54;97202.13;;;26.16;47.08
50977;BME280;36992;48.200;12.418;2023-08-21T02:55:21;97194.22;;;26.14;47.13
50977;BME280;36992;48.200;12.418;2023-08-21T02:57:48;97189.88;;;26.13;46.74
50977;BME280;36992;48.200;12.418;2023-08-21T03:00:15;97200.94;;;26.13;46.96
50977;BME280;36992;48.200;12.418;2023-08-21T03:02:41;97206.44;;;26.13;46.88
50977;BME280;36992;48.200;12.418;2023-08-21T03:05:08;97203.28;;;26.11;47.00
50977;BME280;36992;48.200;12.418;2023-08-21T03:07:37;97207.63;;;26.12;46.60
50977;BME280;36992;48.200;12.418;2023-08-21T03:10:05;97202.88;;;26.09;46.96
50977;BME280;36992;48.200;12.418;2023-08-21T03:12:31;97206.81;;;26.08;46.71
50977;BME280;36992;48.200;12.418;2023-08-21T03:14:58;97205.22;;;26.07;46.72
50977;BME280;36992;48.200;12.418;2023-08-21T03:17:24;97204.03;;;26.04;46.70
50977;BME280;36992;48.200;12.418;2023-08-21T03:19:51;97206.00;;;26.04;46.87
50977;BME280;36992;48.200;12.418;2023-08-21T03:22:17;97207.97;;;26.03;46.89
50977;BME280;36992;48.200;12.418;2023-08-21T03:24:45;97209.13;;;26.02;46.95
50977;BME280;36992;48.200;12.418;2023-08-21T03:27:14;97209.94;;;26.03;46.63
50977;BME280;36992;48.200;12.418;2023-08-21T03:29:41;97203.59;;;25.98;46.92
50977;BME280;36992;48.200;12.418;2023-08-21T03:32:13;97202.78;;;25.98;47.04
50977;BME280;36992;48.200;12.418;2023-08-21T03:34:40;97215.38;;;25.95;47.07
50977;BME280;36992;48.200;12.418;2023-08-21T03:37:06;97213.81;;;25.94;47.05
50977;BME280;36992;48.200;12.418;2023-08-21T03:39:33;97213.03;;;25.94;46.90
50977;BME280;36992;48.200;12.418;2023-08-21T03:42:01;97214.97;;;25.93;47.00
50977;BME280;36992;48.200;12.418;2023-08-21T03:44:27;97224.44;;;25.92;46.80
50977;BME280;36992;48.200;12.418;2023-08-21T03:46:54;97224.81;;;25.91;47.19
50977;BME280;36992;48.200;12.418;2023-08-21T03:49:20;97223.59;;;25.88;47.25
50977;BME280;36992;48.200;12.418;2023-08-21T03:51:47;97223.97;;;25.86;46.99
50977;BME280;36992;48.200;12.418;2023-08-21T03:54:13;97224.38;;;25.85;47.26
50977;BME280;36992;48.200;12.418;2023-08-21T03:56:40;97222.38;;;25.82;47.25
50977;BME280;36992;48.200;12.418;2023-08-21T03:59:08;97218.84;;;25.81;47.07
50977;BME280;36992;48.200;12.418;2023-08-21T04:01:34;97221.56;;;25.78;47.49
50977;BME280;36992;48.200;12.418;2023-08-21T04:04:01;97221.56;;;25.78;47.30
50977;BME280;36992;48.200;12.418;2023-08-21T04:06:27;97221.13;;;25.76;47.51
50977;BME280;36992;48.200;12.418;2023-08-21T04:08:54;97234.94;;;25.76;47.19
50977;BME280;36992;48.200;12.418;2023-08-21T04:11:20;97225.44;;;25.73;47.56
50977;BME280;36992;48.200;12.418;2023-08-21T04:13:47;97225.84;;;25.71;47.30
50977;BME280;36992;48.200;12.418;2023-08-21T04:16:15;97222.28;;;25.71;47.18
50977;BME280;36992;48.200;12.418;2023-08-21T04:18:43;97227.41;;;25.69;47.54
50977;BME280;36992;48.200;12.418;2023-08-21T04:21:10;97225.03;;;25.67;47.47
50977;BME280;36992;48.200;12.418;2023-08-21T04:23:36;97221.47;;;25.67;47.42
50977;BME280;36992;48.200;12.418;2023-08-21T04:26:03;97222.25;;;25.67;47.57
50977;BME280;36992;48.200;12.418;2023-08-21T04:28:30;97224.22;;;25.67;47.55
50977;BME280;36992;48.200;12.418;2023-08-21T04:30:57;97221.47;;;25.67;47.38
50977;BME280;36992;48.200;12.418;2023-08-21T04:33:27;97227.78;;;25.67;47.56
50977;BME280;36992;48.200;12.418;2023-08-21T04:35:54;97226.94;;;25.63;47.55
50977;BME280;36992;48.200;12.418;2023-08-21T04:38:20;97230.88;;;25.62;47.74
50977;BME280;36992;48.200;12.418;2023-08-21T04:40:47;97238.75;;;25.60;47.54
50977;BME280;36992;48.200;12.418;2023-08-21T04:43:13;97237.91;;;25.56;47.62
50977;BME280;36992;48.200;12.418;2023-08-21T04:45:46;97237.16;;;25.59;47.14
50977;BME280;36992;48.200;12.418;2023-08-21T04:48:13;97235.94;;;25.53;47.70
50977;BME280;36992;48.200;12.418;2023-08-21T04:50:41;97235.09;;;25.52;47.80
50977;BME280;36992;48.200;12.418;2023-08-21T04:53:07;97237.81;;;25.49;47.75
50977;BME280;36992;48.200;12.418;2023-08-21T04:55:34;97237.78;;;25.45;47.97
50977;BME280;36992;48.200;12.418;2023-08-21T04:58:02;97243.28;;;25.45;47.82
50977;BME280;36992;48.200;12.418;2023-08-21T05:00:28;97250.00;;;25.44;47.86
50977;BME280;36992;48.200;12.418;2023-08-21T05:02:55;97244.84;;;25.42;47.93
50977;BME280;36992;48.200;12.418;2023-08-21T05:05:21;97255.88;;;25.42;47.99
50977;BME280;36992;48.200;12.418;2023-08-21T05:07:49;97255.06;;;25.42;47.73
50977;BME280;36992;48.200;12.418;2023-08-21T05:10:16;97248.75;;;25.38;48.19
50977;BME280;36992;48.200;12.418;2023-08-21T05:12:42;97244.78;;;25.35;47.96
50977;BME280;36992;48.200;12.418;2023-08-21T05:15:09;97247.09;;;25.33;48.15
50977;BME280;36992;48.200;12.418;2023-08-21T05:17:36;97247.50;;;25.31;48.19
50977;BME280;36992;48.200;12.418;2023-08-21T05:20:03;97253.00;;;25.31;48.21
50977;BME280;36992;48.200;12.418;2023-08-21T05:22:30;97251.03;;;25.32;48.30
50977;BME280;36992;48.200;12.418;2023-08-21T05:24:57;97255.81;;;25.35;48.00
50977;BME280;36992;48.200;12.418;2023-08-21T05:27:24;97250.28;;;25.35;48.21
50977;BME280;36992;48.200;12.418;2023-08-21T05:29:50;97259.34;;;25.36;48.11
50977;BME280;36992;48.200;12.418;2023-08-21T05:32:17;97258.97;;;25.37;47.85
50977;BME280;36992;48.200;12.418;2023-08-21T05:34:44;97254.25;;;25.38;47.92
50977;BME280;36992;48.200;12.418;2023-08-21T05:37:11;97261.34;;;25.39;48.08
50977;BME280;36992;48.200;12.418;2023-08-21T05:39:37;97253.84;;;25.39;47.99
50977;BME280;36992;48.200;12.418;2023-08-21T05:42:05;97254.28;;;25.41;47.90
50977;BME280;36992;48.200;12.418;2023-08-21T05:44:32;97253.09;;;25.39;47.87
50977;BME280;36992;48.200;12.418;2023-08-21T05:46:58;97253.84;;;25.39;48.04
50977;BME280;36992;48.200;12.418;2023-08-21T05:49:25;97255.03;;;25.38;48.22
50977;BME280;36992;48.200;12.418;2023-08-21T05:51:51;97259.78;;;25.38;47.95
50977;BME280;36992;48.200;12.418;2023-08-21T05:54:18;97248.75;;;25.38;48.24
50977;BME280;36992;48.200;12.418;2023-08-21T05:56:45;97262.94;;;25.40;48.18
50977;BME280;36992;48.200;12.418;2023-08-21T05:59:26;97257.50;;;25.47;47.44
50977;BME280;36992;48.200;12.418;2023-08-21T06:01:52;97254.28;;;25.41;48.30
50977;BME280;36992;48.200;12.418;2023-08-21T06:04:19;97255.88;;;25.42;48.29
50977;BME280;36992;48.200;12.418;2023-08-21T06:06:45;97260.22;;;25.43;48.35
50977;BME280;36992;48.200;12.418;2023-08-21T06:09:12;97257.47;;;25.43;48.29
50977;BME280;36992;48.200;12.418;2023-08-21T06:11:38;97264.56;;;25.44;48.15
50977;BME280;36992;48.200;12.418;2023-08-21T06:14:05;97264.56;;;25.44;48.45
50977;BME280;36992;48.200;12.418;2023-08-21T06:16:33;97261.84;;;25.48;47.80
50977;BME280;36992;48.200;12.418;2023-08-21T06:18:59;97270.09;;;25.48;48.19
50977;BME280;36992;48.200;12.418;2023-08-21T06:21:26;97266.16;;;25.49;48.35
50977;BME280;36992;48.200;12.418;2023-08-21T06:23:52;97271.31;;;25.51;48.20
50977;BME280;36992;48.200;12.418;2023-08-21T06:26:19;97271.78;;;25.53;48.09
50977;BME280;36992;48.200;12.418;2023-08-21T06:28:45;97269.44;;;25.55;48.58
50977;BME280;36992;48.200;12.418;2023-08-21T06:31:12;97266.28;;;25.56;48.45
50977;BME280;36992;48.200;12.418;2023-08-21T06:33:40;97272.63;;;25.61;48.29
50977;BME280;36992;48.200;12.418;2023-08-21T06:36:06;97263.56;;;25.60;48.55
50977;BME280;36992;48.200;12.418;2023-08-21T06:38:33;97272.25;;;25.62;48.81
50977;BME280;36992;48.200;12.418;2023-08-21T06:40:59;97267.94;;;25.65;48.49
50977;BME280;36992;48.200;12.418;2023-08-21T06:43:26;97274.31;;;25.69;48.51
50977;BME280;36992;48.200;12.418;2023-08-21T06:45:52;97270.38;;;25.70;48.50
50977;BME280;36992;48.200;12.418;2023-08-21T06:48:19;97268.00;;;25.72;48.62
50977;BME280;36992;48.200;12.418;2023-08-21T06:50:47;97277.50;;;25.75;48.50
50977;BME280;36992;48.200;12.418;2023-08-21T06:53:13;97273.56;;;25.76;48.66
50977;BME280;36992;48.200;12.418;2023-08-21T06:55:40;97274.00;;;25.78;48.09
50977;BME280;36992;48.200;12.418;2023-08-21T06:58:06;97271.63;;;25.80;47.66
50977;BME280;36992;48.200;12.418;2023-08-21T07:00:33;97272.03;;;25.82;47.65
50977;BME280;36992;48.200;12.418;2023-08-21T07:02:59;97278.00;;;25.84;47.54
50977;BME280;36992;48.200;12.418;2023-08-21T07:05:26;97273.66;;;25.86;47.29
50977;BME280;36992;48.200;12.418;2023-08-21T07:07:54;97280.81;;;25.91;47.38
50977;BME280;36992;48.200;12.418;2023-08-21T07:10:21;97274.88;;;25.93;47.31
50977;BME280;36992;48.200;12.418;2023-08-21T07:12:47;97277.72;;;25.96;47.23
50977;BME280;36992;48.200;12.418;2023-08-21T07:15:14;97272.22;;;26.00;47.43
50977;BME280;36992;48.200;12.418;2023-08-21T07:17:41;97273.03;;;26.04;47.39
50977;BME280;36992;48.200;12.418;2023-08-21T07:20:08;97280.94;;;26.09;46.77
50977;BME280;36992;48.200;12.418;2023-08-21T07:22:34;97273.50;;;26.13;47.15
50977;BME280;36992;48.200;12.418;2023-08-21T07:25:02;97282.63;;;26.21;47.31
50977;BME280;36992;48.200;12.418;2023-08-21T07:27:29;97282.69;;;26.25;47.22
50977;BME280;36992;48.200;12.418;2023-08-21T07:29:56;97281.53;;;26.30;46.76
50977;BME280;36992;48.200;12.418;2023-08-21T07:32:23;97281.97;;;26.35;47.48
50977;BME280;36992;48.200;12.418;2023-08-21T07:34:52;97283.19;;;26.42;47.46
50977;BME280;36992;48.200;12.418;2023-08-21T07:37:18;97284.41;;;26.44;47.62
50977;BME280;36992;48.200;12.418;2023-08-21T07:39:45;97284.41;;;26.48;47.65
50977;BME280;36992;48.200;12.418;2023-08-21T07:42:13;97280.91;;;26.55;46.72
50977;BME280;36992;48.200;12.418;2023-08-21T07:44:39;97274.59;;;26.58;47.47
50977;BME280;36992;48.200;12.418;2023-08-21T07:47:06;97284.53;;;26.62;46.93
50977;BME280;36992;48.200;12.418;2023-08-21T07:49:32;97279.41;;;26.68;47.07
50977;BME280;36992;48.200;12.418;2023-08-21T07:51:59;97284.19;;;26.75;47.19
50977;BME280;36992;48.200;12.418;2023-08-21T07:54:26;97278.28;;;26.80;47.17
50977;BME280;36992;48.200;12.418;2023-08-21T07:56:52;97284.25;;;26.86;47.15
50977;BME280;36992;48.200;12.418;2023-08-21T07:59:20;97279.97;;;26.92;46.63
50977;BME280;36992;48.200;12.418;2023-08-21T08:01:47;97278.78;;;26.97;46.26
50977;BME280;36992;48.200;12.418;2023-08-21T08:04:14;97288.31;;;27.03;45.85
50977;BME280;36992;48.200;12.418;2023-08-21T08:06:41;97284.78;;;27.10;45.79
50977;BME280;36992;48.200;12.418;2023-08-21T08:09:07;97282.44;;;27.15;44.96
50977;BME280;36992;48.200;12.418;2023-08-21T08:11:34;97282.44;;;27.23;45.39
50977;BME280;36992;48.200;12.418;2023-08-21T08:14:00;97284.03;;;27.27;45.26
50977;BME280;36992;48.200;12.418;2023-08-21T08:16:28;97285.66;;;27.36;45.38
50977;BME280;36992;48.200;12.418;2023-08-21T08:18:54;97283.69;;;27.40;44.84
50977;BME280;36992;48.200;12.418;2023-08-21T08:21:21;97291.22;;;27.46;44.56
50977;BME280;36992;48.200;12.418;2023-08-21T08:23:47;97284.13;;;27.53;43.89
50977;BME280;36992;48.200;12.418;2023-08-21T08:26:14;97277.44;;;27.57;44.10
50977;BME280;36992;48.200;12.418;2023-08-21T08:28:41;97285.34;;;27.63;43.93
50977;BME280;36992;48.200;12.418;2023-08-21T08:31:14;97281.84;;;27.73;44.20
50977;BME280;36992;48.200;12.418;2023-08-21T08:33:42;97286.56;;;27.76;43.82
50977;BME280;36992;48.200;12.418;2023-08-21T08:36:08;97292.91;;;27.80;43.86
50977;BME280;36992;48.200;12.418;2023-08-21T08:38:35;97284.22;;;27.85;43.44
50977;BME280;36992;48.200;12.418;2023-08-21T08:41:05;97287.00;;;27.93;43.35
50977;BME280;36992;48.200;12.418;2023-08-21T08:43:34;97285.81;;;27.97;43.21
50977;BME280;36992;48.200;12.418;2023-08-21T08:46:03;97290.56;;;28.04;42.86
50977;BME280;36992;48.200;12.418;2023-08-21T08:48:31;97288.56;;;28.08;42.79
50977;BME280;36992;48.200;12.418;2023-08-21T08:50:59;97283.06;;;28.16;42.58
50977;BME280;36992;48.200;12.418;2023-08-21T08:53:27;97284.63;;;28.20;42.33
50977;BME280;36992;48.200;12.418;2023-08-21T08:55:53;97289.81;;;28.25;42.76
50977;BME280;36992;48.200;12.418;2023-08-21T08:58:20;97279.50;;;28.30;42.31
50977;BME280;36992;48.200;12.418;2023-08-21T09:00:46;97280.66;;;28.36;41.90
50977;BME280;36992;48.200;12.418;2023-08-21T09:03:13;97283.03;;;28.41;41.33
50977;BME280;36992;48.200;12.418;2023-08-21T09:05:41;97289.75;;;28.47;41.59
50977;BME280;36992;48.200;12.418;2023-08-21T09:08:12;97278.66;;;28.54;42.32
50977;BME280;36992;48.200;12.418;2023-08-21T09:10:39;97282.63;;;28.57;42.22
50977;BME280;36992;48.200;12.418;2023-08-21T09:13:12;97278.66;;;28.65;41.97
50977;BME280;36992;48.200;12.418;2023-08-21T09:15:41;97279.44;;;28.70;41.80
50977;BME280;36992;48.200;12.418;2023-08-21T09:18:10;97281.41;;;28.76;42.14
50977;BME280;36992;48.200;12.418;2023-08-21T09:20:37;97277.03;;;28.79;41.38
50977;BME280;36992;48.200;12.418;2023-08-21T09:23:03;97272.25;;;28.83;41.73
50977;BME280;36992;48.200;12.418;2023-08-21T09:25:35;97277.81;;;28.94;42.27
50977;BME280;36992;48.200;12.418;2023-08-21T09:28:05;97269.88;;;29.00;42.15
50977;BME280;36992;48.200;12.418;2023-08-21T09:30:44;97272.22;;;29.08;42.08
50977;BME280;36992;48.200;12.418;2023-08-21T09:33:11;97271.41;;;29.08;41.50
50977;BME280;36992;48.200;12.418;2023-08-21T09:35:38;97269.78;;;29.14;41.25
50977;BME280;36992;48.200;12.418;2023-08-21T09:38:07;97270.97;;;29.20;41.53
50977;BME280;36992;48.200;12.418;2023-08-21T09:40:39;97260.22;;;29.30;41.31
50977;BME280;36992;48.200;12.418;2023-08-21T09:43:06;97262.59;;;29.31;41.20
50977;BME280;36992;48.200;12.418;2023-08-21T09:45:34;97262.97;;;29.37;41.57
50977;BME280;36992;48.200;12.418;2023-08-21T09:48:01;97259.75;;;29.42;40.80
50977;BME280;36992;48.200;12.418;2023-08-21T09:50:29;97259.38;;;29.47;41.23
50977;BME280;36992;48.200;12.418;2023-08-21T09:52:56;97250.59;;;29.53;40.89
50977;BME280;36992;48.200;12.418;2023-08-21T09:55:23;97264.03;;;29.58;40.64
50977;BME280;36992;48.200;12.418;2023-08-21T09:57:52;97253.69;;;29.66;41.09
50977;BME280;36992;48.200;12.418;2023-08-21T10:00:24;97249.69;;;29.70;40.90
50977;BME280;36992;48.200;12.418;2023-08-21T10:02:51;97255.63;;;29.76;40.31
50977;BME280;36992;48.200;12.418;2023-08-21T10:05:17;97250.41;;;29.82;40.83
50977;BME280;36992;48.200;12.418;2023-08-21T10:07:47;97251.16;;;29.89;40.75
50977;BME280;36992;48.200;12.418;2023-08-21T10:10:14;97252.69;;;29.94;40.87
50977;BME280;36992;48.200;12.418;2023-08-21T10:12:40;97248.69;;;29.99;40.80
50977;BME280;36992;48.200;12.418;2023-08-21T10:15:09;97245.44;;;30.08;40.54
50977;BME280;36992;48.200;12.418;2023-08-21T10:17:36;97243.47;;;30.12;40.78
50977;BME280;36992;48.200;12.418;2023-08-21T10:20:03;97241.41;;;30.20;40.41
50977;BME280;36992;48.200;12.418;2023-08-21T10:22:39;97235.75;;;30.31;40.67
50977;BME280;36992;48.200;12.418;2023-08-21T10:25:13;97247.84;;;30.51;41.23
50977;BME280;36992;48.200;12.418;2023-08-21T10:27:40;97241.94;;;30.46;40.44
50977;BME280;36992;48.200;12.418;2023-08-21T10:30:13;97240.25;;;30.55;40.44
50977;BME280;36992;48.200;12.418;2023-08-21T10:32:44;97232.63;;;30.63;40.91
50977;BME280;36992;48.200;12.418;2023-08-21T10:35:14;97236.13;;;30.71;40.64
50977;BME280;36992;48.200;12.418;2023-08-21T10:38:05;97235.59;;;30.83;40.64
50977;BME280;36992;48.200;12.418;2023-08-21T10:40:33;97234.38;;;30.88;40.29
50977;BME280;36992;48.200;12.418;2023-08-21T10:43:00;97228.72;;;30.95;40.27
50977;BME280;36992;48.200;12.418;2023-08-21T10:45:29;97235.69;;;31.07;40.10
50977;BME280;36992;48.200;12.418;2023-08-21T10:47:57;97229.69;;;31.13;39.34
50977;BME280;36992;48.200;12.418;2023-08-21T10:50:23;97233.16;;;31.20;39.15
50977;BME280;36992;48.200;12.418;2023-08-21T10:52:51;97231.88;;;31.29;39.95
50977;BME280;36992;48.200;12.418;2023-08-21T10:55:19;97239.72;;;31.38;38.73
50977;BME280;36992;48.200;12.418;2023-08-21T10:57:46;97236.00;;;31.48;40.54
50977;BME280;36992;48.200;12.418;2023-08-21T11:00:14;97237.44;;;31.56;38.71
50977;BME280;36992;48.200;12.418;2023-08-21T11:02:44;97234.94;;;31.66;38.97
50977;BME280;36992;48.200;12.418;2023-08-21T11:05:13;97238.81;;;31.72;38.91
50977;BME280;36992;48.200;12.418;2023-08-21T11:07:41;97237.06;;;31.82;38.55
50977;BME280;36992;48.200;12.418;2023-08-21T11:10:10;97232.91;;;31.94;38.02
50977;BME280;36992;48.200;12.418;2023-08-21T11:12:38;97225.66;;;32.00;38.07
50977;BME280;36992;48.200;12.418;2023-08-21T11:15:14;97233.06;;;32.10;38.14
50977;BME280;36992;48.200;12.418;2023-08-21T11:17:50;97228.44;;;32.24;38.42
50977;BME280;36992;48.200;12.418;2023-08-21T11:20:17;97225.16;;;32.29;36.69
50977;BME280;36992;48.200;12.418;2023-08-21T11:22:44;97234.53;;;32.39;37.33
50977;BME280;36992;48.200;12.418;2023-08-21T11:25:10;97235.19;;;32.47;38.10
50977;BME280;36992;48.200;12.418;2023-08-21T11:27:37;97229.88;;;32.56;38.25
50977;BME280;36992;48.200;12.418;2023-08-21T11:30:05;97221.34;;;32.63;37.41
50977;BME280;36992;48.200;12.418;2023-08-21T11:32:32;97227.16;;;32.73;37.33
50977;BME280;36992;48.200;12.418;2023-08-21T11:35:00;97232.53;;;32.83;37.25
50977;BME280;36992;48.200;12.418;2023-08-21T11:37:27;97226.78;;;32.91;36.16
50977;BME280;36992;48.200;12.418;2023-08-21T11:39:55;97235.03;;;32.98;36.76
50977;BME280;36992;48.200;12.418;2023-08-21T11:42:28;97226.09;;;33.07;38.10
50977;BME280;36992;48.200;12.418;2023-08-21T11:44:55;97216.34;;;33.15;37.33
50977;BME280;36992;48.200;12.418;2023-08-21T11:47:23;97221.78;;;33.22;37.35
50977;BME280;36992;48.200;12.418;2023-08-21T11:49:50;97224.84;;;33.28;36.32
50977;BME280;36992;48.200;12.418;2023-08-21T11:52:20;97231.06;;;33.36;37.11
50977;BME280;36992;48.200;12.418;2023-08-21T11:54:48;97226.16;;;33.40;36.96
50977;BME280;36992;48.200;12.418;2023-08-21T11:57:15;97224.41;;;33.46;37.57
50977;BME280;36992;48.200;12.418;2023-08-21T11:59:42;97228.28;;;33.53;36.86
50977;BME280;36992;48.200;12.418;2023-08-21T12:02:14;97227.25;;;33.63;36.10
50977;BME280;36992;48.200;12.418;2023-08-21T12:04:41;97224.81;;;33.65;36.09
50977;BME280;36992;48.200;12.418;2023-08-21T12:07:08;97222.72;;;33.69;35.48
50977;BME280;36992;48.200;12.418;2023-08-21T12:09:36;97225.34;;;33.76;35.52
50977;BME280;36992;48.200;12.418;2023-08-21T12:12:04;97219.66;;;33.80;36.54
50977;BME280;36992;48.200;12.418;2023-08-21T12:14:31;97215.59;;;33.85;35.24
50977;BME280;36992;48.200;12.418;2023-08-21T12:16:57;97213.03;;;33.90;35.48
50977;BME280;36992;48.200;12.418;2023-08-21T12:19:24;97206.56;;;33.94;34.39
50977;BME280;36992;48.200;12.418;2023-08-21T12:21:51;97202.47;;;33.98;35.08
50977;BME280;36992;48.200;12.418;2023-08-21T12:24:18;97210.38;;;34.03;34.89
50977;BME280;36992;48.200;12.418;2023-08-21T12:26:46;97203.03;;;34.10;36.05
50977;BME280;36992;48.200;12.418;2023-08-21T12:29:12;97204.50;;;34.14;33.84
50977;BME280;36992;48.200;12.418;2023-08-21T12:31:39;97202.81;;;34.17;35.06
50977;BME280;36992;48.200;12.418;2023-08-21T12:34:05;97193.91;;;34.22;34.48
50977;BME280;36992;48.200;12.418;2023-08-21T12:36:34;97204.53;;;34.27;34.15
50977;BME280;36992;48.200;12.418;2023-08-21T12:39:01;97200.88;;;34.30;33.17
50977;BME280;36992;48.200;12.418;2023-08-21T12:41:27;97203.13;;;34.36;30.02
50977;BME280;36992;48.200;12.418;2023-08-21T12:43:55;97199.44;;;34.39;29.60
50977;BME280;36992;48.200;12.418;2023-08-21T12:46:22;97197.78;;;34.41;31.59
50977;BME280;36992;48.200;12.418;2023-08-21T12:48:49;97193.31;;;34.44;31.88
50977;BME280;36992;48.200;12.418;2023-08-21T12:51:15;97189.28;;;34.45;28.59